Terminal Aerodrome Forecast
Issued by NWS

Home | Current Version | Previous Version | Text Only | Print | Product List | Glossary On
Versions: 1 2 3 4 5 6 7 8 9 10 11 12 13 14 15 16 17 18 19 20 21 22 23 24 25 26 27 28 29 30 31 32 33 34 35 36 37 38 39 40 41 42 43 44 45 46 47 48 49
846
FTUS43 KDMX 051603 AAB
TAFOTM
TAF AMD
KOTM 051603Z 0516/0612 17012KT 2SM BR OVC002
     FM051730 17010KT 5SM BR SCT002 BKN020
     FM051900 18012G19KT P6SM BKN150
     FM060000 16008KT P6SM BKN090
     FM060900 27011KT P6SM BKN040=

USA.gov is the U.S. government's official web portal to all federal, state and local government web resources and services.